createdAt,value
2023-01-30T00:01:05.799Z,33.97
2023-01-30T00:03:34.374Z,34.20
2023-01-30T00:06:01.438Z,31.07
2023-01-30T00:08:28.589Z,27.60
2023-01-30T00:10:55.772Z,32.30
2023-01-30T00:13:22.744Z,37.90
2023-01-30T00:15:51.135Z,32.03
2023-01-30T00:18:18.166Z,35.33
2023-01-30T00:20:45.144Z,33.03
2023-01-30T00:23:12.186Z,37.30
2023-01-30T00:25:39.644Z,32.07
2023-01-30T00:28:06.903Z,29.57
2023-01-30T00:30:34.203Z,29.83
2023-01-30T00:33:02.635Z,26.20
2023-01-30T00:35:29.883Z,26.17
2023-01-30T00:37:58.092Z,31.10
2023-01-30T00:40:25.988Z,28.47
2023-01-30T00:45:59.548Z,27.10
2023-01-30T00:48:29.101Z,19.33
2023-01-30T00:50:56.336Z,23.48
2023-01-30T00:53:24.420Z,26.27
2023-01-30T00:55:53.350Z,22.60
2023-01-30T00:58:21.443Z,27.92
2023-01-30T01:00:50.412Z,23.77
2023-01-30T01:03:18.071Z,27.52
2023-01-30T01:05:49.883Z,15.80
2023-01-30T01:08:17.262Z,14.10
2023-01-30T01:10:44.366Z,18.40
2023-01-30T01:13:11.486Z,12.63
2023-01-30T01:15:44.281Z,21.25
2023-01-30T01:18:11.889Z,27.88
2023-01-30T01:20:39.033Z,19.80
2023-01-30T01:23:07.472Z,12.60
2023-01-30T01:25:34.519Z,10.85
2023-01-30T01:28:03.960Z,10.77
2023-01-30T01:30:30.978Z,12.57
2023-01-30T01:32:58.098Z,14.88
2023-01-30T01:35:25.599Z,10.95
2023-01-30T01:37:57.356Z,16.90
2023-01-30T01:40:47.167Z,19.27
2023-01-30T01:43:19.818Z,12.35
2023-01-30T01:45:53.791Z,12.00
2023-01-30T01:48:26.689Z,19.83
2023-01-30T01:50:59.509Z,16.73
2023-01-30T01:53:30.410Z,9.52
2023-01-30T01:56:03.271Z,13.52
2023-01-30T01:58:38.417Z,10.57
2023-01-30T02:01:08.349Z,9.18
2023-01-30T02:03:41.225Z,11.75
2023-01-30T02:06:15.419Z,13.70
2023-01-30T02:08:47.865Z,16.70
2023-01-30T02:11:24.904Z,17.73
2023-01-30T02:13:52.127Z,10.57
2023-01-30T02:16:19.149Z,10.48
2023-01-30T02:18:47.701Z,11.33
2023-01-30T02:21:55.279Z,17.20
2023-01-30T02:27:15.428Z,16.87
2023-01-30T02:32:31.614Z,13.37
2023-01-30T02:37:50.444Z,15.50
2023-01-30T02:43:20.255Z,13.57
2023-01-30T02:45:54.395Z,14.07
2023-01-30T02:48:27.389Z,22.25
2023-01-30T02:50:59.299Z,18.90
2023-01-30T02:53:30.111Z,10.43
2023-01-30T02:55:57.040Z,9.45
2023-01-30T02:58:27.934Z,11.85
2023-01-30T03:01:23.917Z,11.63
2023-01-30T03:04:09.316Z,13.23
2023-01-30T03:07:02.092Z,9.95
2023-01-30T03:09:36.120Z,16.17
2023-01-30T03:12:09.822Z,8.50
2023-01-30T03:14:46.116Z,14.25
2023-01-30T03:17:14.813Z,7.68
2023-01-30T03:19:43.542Z,15.10
2023-01-30T03:22:10.622Z,7.88
2023-01-30T03:24:37.718Z,9.60
2023-01-30T03:27:08.860Z,13.93
2023-01-30T03:29:36.172Z,13.90
2023-01-30T03:32:03.382Z,12.45
2023-01-30T03:34:30.398Z,10.52
2023-01-30T03:36:58.812Z,10.98
2023-01-30T03:42:07.501Z,8.82
2023-01-30T03:44:34.523Z,9.40
2023-01-30T03:47:02.149Z,9.60
2023-01-30T03:49:29.126Z,9.07
2023-01-30T03:51:56.073Z,12.30
2023-01-30T03:54:24.421Z,10.35
2023-01-30T03:56:51.378Z,8.82
2023-01-30T03:59:18.280Z,9.50
2023-01-30T04:01:45.260Z,8.40
2023-01-30T04:04:13.841Z,6.90
2023-01-30T04:06:40.971Z,9.63
2023-01-30T04:09:10.499Z,10.00
2023-01-30T04:11:38.855Z,9.30
2023-01-30T04:14:05.839Z,7.78
2023-01-30T04:16:32.828Z,10.18
2023-01-30T04:18:59.792Z,9.52
2023-01-30T04:21:28.294Z,10.63
2023-01-30T04:23:55.312Z,8.20
2023-01-30T04:26:22.267Z,5.88
2023-01-30T04:28:50.702Z,11.18
2023-01-30T04:31:17.791Z,11.88
2023-01-30T04:33:44.951Z,13.02
2023-01-30T04:36:12.726Z,6.80
2023-01-30T04:38:40.088Z,9.57
2023-01-30T04:41:07.405Z,7.80
2023-01-30T04:43:34.501Z,9.63
2023-01-30T04:46:02.975Z,7.15
2023-01-30T04:48:30.169Z,12.25
2023-01-30T04:50:57.840Z,8.02
2023-01-30T04:53:25.405Z,6.80
2023-01-30T04:55:52.689Z,9.52
2023-01-30T04:58:19.688Z,13.50
2023-01-30T05:00:47.890Z,9.87
2023-01-30T05:03:16.712Z,5.28
2023-01-30T05:05:47.116Z,7.18
2023-01-30T05:08:40.659Z,6.20
2023-01-30T05:11:26.987Z,5.70
2023-01-30T05:13:54.347Z,9.05
2023-01-30T05:16:22.669Z,12.43
2023-01-30T05:18:53.872Z,7.05
2023-01-30T05:24:03.537Z,11.57
2023-01-30T05:26:33.464Z,7.32
2023-01-30T05:29:00.681Z,11.13
2023-01-30T05:31:29.140Z,14.25
2023-01-30T05:33:57.705Z,8.90
2023-01-30T05:36:24.860Z,15.73
2023-01-30T05:38:52.217Z,12.38
2023-01-30T05:41:19.270Z,16.73
2023-01-30T05:43:49.779Z,10.52
2023-01-30T05:46:16.997Z,12.20
2023-01-30T05:48:44.017Z,8.18
2023-01-30T05:51:20.163Z,9.82
2023-01-30T05:53:47.798Z,10.35
2023-01-30T05:56:15.440Z,11.90
2023-01-30T05:58:42.791Z,9.23
2023-01-30T06:01:13.006Z,15.43
2023-01-30T06:03:40.224Z,14.40
2023-01-30T06:06:08.121Z,15.52
2023-01-30T06:08:36.599Z,11.82
2023-01-30T06:11:06.626Z,23.05
2023-01-30T06:13:35.306Z,11.68
2023-01-30T06:16:02.447Z,10.70
2023-01-30T06:18:29.479Z,12.60
2023-01-30T06:20:56.587Z,18.50
2023-01-30T06:23:24.129Z,18.80
2023-01-30T06:25:54.572Z,12.52
2023-01-30T06:28:23.059Z,15.80
2023-01-30T06:30:50.896Z,12.32
2023-01-30T06:33:18.566Z,10.77
2023-01-30T06:35:49.000Z,18.02
2023-01-30T06:38:16.252Z,10.68
2023-01-30T06:40:45.804Z,10.35
2023-01-30T06:43:15.043Z,18.25
2023-01-30T06:45:42.508Z,13.98
2023-01-30T06:48:10.169Z,18.75
2023-01-30T06:50:38.915Z,17.77
2023-01-30T06:53:07.798Z,12.90
2023-01-30T06:55:38.529Z,13.50
2023-01-30T06:58:16.944Z,17.92
2023-01-30T07:00:45.264Z,10.60
2023-01-30T07:03:14.013Z,10.57
2023-01-30T07:05:42.348Z,11.65
2023-01-30T07:08:12.762Z,13.60
2023-01-30T07:10:42.744Z,21.42
2023-01-30T07:13:09.817Z,9.65
2023-01-30T07:15:38.822Z,15.93
2023-01-30T07:18:06.010Z,13.02
2023-01-30T07:20:33.292Z,18.35
2023-01-30T07:23:02.101Z,15.02
2023-01-30T07:25:29.764Z,7.90
2023-01-30T07:28:00.084Z,11.90
2023-01-30T07:30:29.052Z,14.35
2023-01-30T07:33:00.218Z,18.33
2023-01-30T07:35:30.042Z,15.45
2023-01-30T07:37:59.181Z,9.52
2023-01-30T07:40:26.968Z,7.75
2023-01-30T07:42:59.276Z,13.33
2023-01-30T07:45:34.632Z,20.25
2023-01-30T07:48:03.075Z,10.63
2023-01-30T07:50:30.348Z,12.18
2023-01-30T07:52:57.639Z,7.93
2023-01-30T07:55:24.794Z,16.87
2023-01-30T07:57:51.840Z,11.40
2023-01-30T08:00:20.288Z,7.63
2023-01-30T08:02:48.021Z,12.85
2023-01-30T08:05:17.318Z,5.85
2023-01-30T08:07:44.824Z,13.48
2023-01-30T08:10:12.297Z,17.45
2023-01-30T08:12:39.951Z,11.57
2023-01-30T08:15:08.554Z,17.63
2023-01-30T08:17:35.767Z,15.35
2023-01-30T08:20:04.752Z,19.45
2023-01-30T08:22:34.709Z,12.27
2023-01-30T08:25:01.809Z,19.52
2023-01-30T08:30:35.439Z,17.23
2023-01-30T08:33:02.365Z,12.77
2023-01-30T08:35:29.585Z,18.60
2023-01-30T08:37:58.089Z,23.67
2023-01-30T08:40:26.877Z,14.40
2023-01-30T08:42:53.887Z,26.08
2023-01-30T08:45:20.984Z,10.57
2023-01-30T08:47:47.998Z,12.20
2023-01-30T08:50:15.338Z,19.70
2023-01-30T08:52:42.490Z,12.07
2023-01-30T08:55:12.021Z,18.58
2023-01-30T08:57:40.331Z,16.90
2023-01-30T09:00:10.817Z,11.02
2023-01-30T09:02:38.008Z,26.17
2023-01-30T09:05:06.751Z,11.75
2023-01-30T09:07:34.054Z,13.05
2023-01-30T09:10:03.526Z,20.90
2023-01-30T09:12:34.065Z,17.63
2023-01-30T09:15:01.498Z,17.55
2023-01-30T09:17:28.670Z,14.60
2023-01-30T09:20:01.711Z,18.25
2023-01-30T09:22:28.977Z,17.60
2023-01-30T09:24:57.354Z,20.65
2023-01-30T09:27:24.839Z,14.23
2023-01-30T09:29:53.456Z,13.10
2023-01-30T09:32:20.558Z,28.48
2023-01-30T09:34:47.743Z,14.65
2023-01-30T09:37:15.043Z,15.43
2023-01-30T09:39:42.548Z,10.63
2023-01-30T09:42:29.301Z,12.13
2023-01-30T09:45:21.550Z,19.92
2023-01-30T09:47:57.042Z,20.45
2023-01-30T09:51:03.113Z,22.13
2023-01-30T09:53:35.470Z,10.80
2023-01-30T09:56:02.873Z,16.08
2023-01-30T09:58:41.604Z,16.48
2023-01-30T10:01:20.594Z,17.35
2023-01-30T10:04:00.092Z,16.58
2023-01-30T10:06:27.319Z,12.82
2023-01-30T10:09:03.096Z,20.23
2023-01-30T10:11:51.811Z,16.77
2023-01-30T10:14:45.146Z,23.25
2023-01-30T10:17:32.797Z,21.58
2023-01-30T10:20:13.607Z,20.35
2023-01-30T10:22:55.480Z,17.83
2023-01-30T10:25:32.351Z,13.05
2023-01-30T10:28:05.166Z,16.50
2023-01-30T10:30:34.069Z,13.00
2023-01-30T10:33:06.131Z,15.10
2023-01-30T10:35:38.528Z,11.10
2023-01-30T10:38:16.045Z,10.23
2023-01-30T10:40:52.612Z,13.40
2023-01-30T10:43:27.876Z,22.02
2023-01-30T10:45:59.163Z,17.48
2023-01-30T10:48:47.753Z,18.55
2023-01-30T10:51:27.969Z,20.15
2023-01-30T10:54:01.505Z,24.75
2023-01-30T10:56:39.245Z,14.98
2023-01-30T10:59:21.237Z,19.20
2023-01-30T11:01:58.749Z,12.98
2023-01-30T11:04:32.364Z,40.47
2023-01-30T11:07:02.710Z,21.67
2023-01-30T11:09:42.260Z,9.38
2023-01-30T11:12:15.153Z,17.85
2023-01-30T11:15:05.886Z,14.35
2023-01-30T11:17:36.160Z,12.75
2023-01-30T11:20:13.484Z,23.55
2023-01-30T11:22:47.495Z,15.43
2023-01-30T11:25:17.570Z,33.47
2023-01-30T11:27:53.059Z,16.58
2023-01-30T11:30:21.662Z,20.02
2023-01-30T11:32:50.763Z,17.13
2023-01-30T11:35:25.663Z,19.08
2023-01-30T11:37:53.611Z,10.48
2023-01-30T11:40:26.319Z,18.95
2023-01-30T11:43:02.246Z,17.02
2023-01-30T11:45:30.758Z,19.33
2023-01-30T11:48:05.141Z,15.13
2023-01-30T11:50:41.735Z,16.08
2023-01-30T11:53:29.884Z,14.75
2023-01-30T11:56:06.472Z,16.77
2023-01-30T11:58:39.020Z,13.15
2023-01-30T12:01:09.389Z,19.45
2023-01-30T12:03:48.656Z,21.27
2023-01-30T12:06:24.595Z,19.15
2023-01-30T12:08:55.265Z,19.20
2023-01-30T12:11:28.989Z,13.82
2023-01-30T12:14:04.708Z,12.45
2023-01-30T12:16:46.933Z,26.30
2023-01-30T12:19:30.921Z,14.50
2023-01-30T12:22:05.630Z,15.43
2023-01-30T12:24:39.798Z,15.05
2023-01-30T12:27:15.152Z,16.83
2023-01-30T12:29:54.407Z,23.58
2023-01-30T12:32:26.231Z,17.13
2023-01-30T12:34:53.337Z,12.45
2023-01-30T12:37:36.398Z,17.08
2023-01-30T12:40:13.950Z,12.98
2023-01-30T12:43:05.440Z,31.50
2023-01-30T12:45:35.552Z,20.10
2023-01-30T12:48:23.668Z,18.17
2023-01-30T12:50:59.738Z,13.25
2023-01-30T12:53:36.609Z,17.73
2023-01-30T12:56:30.836Z,28.65
2023-01-30T12:59:05.115Z,23.92
2023-01-30T13:01:43.492Z,17.65
2023-01-30T13:04:22.045Z,18.75
2023-01-30T13:07:02.391Z,16.70
2023-01-30T13:09:46.549Z,22.48
2023-01-30T13:12:20.711Z,16.63
2023-01-30T13:14:56.058Z,20.90
2023-01-30T13:17:38.968Z,19.50
2023-01-30T13:20:19.981Z,27.17
2023-01-30T13:22:55.850Z,18.63
2023-01-30T13:25:31.141Z,19.50
2023-01-30T13:28:02.526Z,13.98
2023-01-30T13:30:31.200Z,31.05
2023-01-30T13:33:01.785Z,9.88
2023-01-30T13:35:32.680Z,23.30
2023-01-30T13:38:03.093Z,20.08
2023-01-30T13:40:38.680Z,15.18
2023-01-30T13:43:16.183Z,18.25
2023-01-30T13:45:47.912Z,14.35
2023-01-30T13:48:28.896Z,23.75
2023-01-30T13:51:25.504Z,24.58
2023-01-30T13:53:58.560Z,21.10
2023-01-30T13:56:41.717Z,32.72
2023-01-30T13:59:22.517Z,21.88
2023-01-30T14:02:10.958Z,29.02
2023-01-30T14:04:48.381Z,22.83
2023-01-30T14:07:21.840Z,18.77
2023-01-30T14:10:03.245Z,21.60
2023-01-30T14:12:41.771Z,13.85
2023-01-30T14:15:24.492Z,24.88
2023-01-30T14:18:07.083Z,35.65
2023-01-30T14:20:36.522Z,23.23
2023-01-30T14:23:07.426Z,22.83
2023-01-30T14:25:49.093Z,23.27
2023-01-30T14:28:51.108Z,14.40
2023-01-30T14:31:46.856Z,24.27
2023-01-30T14:34:39.413Z,22.17
2023-01-30T14:37:44.934Z,21.08
2023-01-30T14:40:31.825Z,10.35
2023-01-30T14:43:44.470Z,14.40
2023-01-30T14:46:54.779Z,17.02
2023-01-30T14:49:30.165Z,17.65
2023-01-30T14:51:57.487Z,18.60
2023-01-30T14:54:48.593Z,15.75
2023-01-30T14:57:22.037Z,20.60
2023-01-30T15:00:14.300Z,13.75
2023-01-30T15:02:48.157Z,19.75
2023-01-30T15:05:18.815Z,16.98
2023-01-30T15:07:49.407Z,27.90
2023-01-30T15:10:29.950Z,27.88
2023-01-30T15:13:17.716Z,24.67
2023-01-30T15:15:59.295Z,23.63
2023-01-30T15:18:51.982Z,15.57
2023-01-30T15:21:41.006Z,32.58
2023-01-30T15:24:25.933Z,24.95
2023-01-30T15:27:03.444Z,46.85
2023-01-30T15:30:00.176Z,22.10
2023-01-30T15:32:29.706Z,20.92
2023-01-30T15:35:00.118Z,17.45
2023-01-30T15:37:33.152Z,20.65
2023-01-30T15:40:21.633Z,37.87
2023-01-30T15:42:51.530Z,25.38
2023-01-30T15:45:27.126Z,20.02
2023-01-30T15:48:24.463Z,23.70
2023-01-30T15:50:55.541Z,19.30
2023-01-30T15:53:28.121Z,28.35
2023-01-30T15:55:55.693Z,33.22
2023-01-30T15:58:24.379Z,13.85
2023-01-30T16:00:55.188Z,27.17
2023-01-30T16:03:24.936Z,35.10
2023-01-30T16:05:57.690Z,19.20
2023-01-30T16:08:26.851Z,18.13
2023-01-30T16:10:54.392Z,22.65
2023-01-30T16:13:24.066Z,22.27
2023-01-30T16:15:55.573Z,15.57
2023-01-30T16:18:31.434Z,27.17
2023-01-30T16:21:03.723Z,15.82
2023-01-30T16:26:18.767Z,23.15
2023-01-30T16:28:45.829Z,33.20
2023-01-30T16:31:13.375Z,21.15
2023-01-30T16:33:40.703Z,17.25
2023-01-30T16:36:38.571Z,18.23
2023-01-30T16:39:28.011Z,19.10
2023-01-30T16:41:56.477Z,25.88
2023-01-30T16:44:24.759Z,26.17
2023-01-30T16:46:57.740Z,20.92
2023-01-30T16:49:37.717Z,18.87
2023-01-30T16:52:17.661Z,35.45
2023-01-30T16:54:48.065Z,33.22
2023-01-30T16:57:31.762Z,29.15
2023-01-30T17:00:02.236Z,28.33
2023-01-30T17:02:35.384Z,19.80
2023-01-30T17:05:27.452Z,21.85
2023-01-30T17:07:57.379Z,30.83
2023-01-30T17:10:55.050Z,27.25
2023-01-30T17:13:36.829Z,16.00
2023-01-30T17:16:26.143Z,12.80
2023-01-30T17:18:55.015Z,15.63
2023-01-30T17:21:24.669Z,18.75
2023-01-30T17:23:55.470Z,27.50
2023-01-30T17:26:22.906Z,23.90
2023-01-30T17:28:49.983Z,28.05
2023-01-30T17:31:18.031Z,18.23
2023-01-30T17:33:44.986Z,20.52
2023-01-30T17:36:17.667Z,14.73
2023-01-30T17:38:44.754Z,18.20
2023-01-30T17:41:18.585Z,26.63
2023-01-30T17:43:45.602Z,22.75
2023-01-30T17:46:13.416Z,33.83
2023-01-30T17:48:40.716Z,17.70
2023-01-30T17:51:07.948Z,25.58
2023-01-30T17:53:35.377Z,19.67
2023-01-30T17:56:02.406Z,37.77
2023-01-30T17:58:31.240Z,29.77
2023-01-30T18:00:58.237Z,24.33
2023-01-30T18:03:25.442Z,22.13
2023-01-30T18:05:52.439Z,32.93
2023-01-30T18:08:19.517Z,27.13
2023-01-30T18:10:46.655Z,22.27
2023-01-30T18:13:13.706Z,27.47
2023-01-30T18:15:42.213Z,31.37
2023-01-30T18:18:16.102Z,26.33
2023-01-30T18:20:43.291Z,30.13
2023-01-30T18:23:10.300Z,26.25
2023-01-30T18:25:37.293Z,30.43
2023-01-30T18:28:07.002Z,34.72
2023-01-30T18:30:34.118Z,28.40
2023-01-30T18:33:02.601Z,27.27
2023-01-30T18:35:29.820Z,20.37
2023-01-30T18:38:01.687Z,28.00
2023-01-30T18:40:29.825Z,39.30
2023-01-30T18:42:56.778Z,42.97
2023-01-30T18:45:24.991Z,35.47
2023-01-30T18:47:52.682Z,27.33
2023-01-30T18:53:02.922Z,32.72
2023-01-30T18:55:30.038Z,40.13
2023-01-30T18:57:58.921Z,22.33
2023-01-30T19:00:26.308Z,18.00
2023-01-30T19:02:56.231Z,57.27
2023-01-30T19:05:23.431Z,19.58
2023-01-30T19:07:50.501Z,22.75
2023-01-30T19:10:20.743Z,27.50
2023-01-30T19:13:06.645Z,23.85
2023-01-30T19:15:35.672Z,26.03
2023-01-30T19:18:02.901Z,30.20
2023-01-30T19:20:31.058Z,33.83
2023-01-30T19:22:58.281Z,23.30
2023-01-30T19:25:26.906Z,31.83
2023-01-30T19:27:55.658Z,33.20
2023-01-30T19:30:23.695Z,22.50
2023-01-30T19:32:52.740Z,24.95
2023-01-30T19:35:20.510Z,32.60
2023-01-30T19:37:47.532Z,33.33
2023-01-30T19:43:09.268Z,30.27
2023-01-30T19:45:38.579Z,30.67
2023-01-30T19:48:06.501Z,30.10
2023-01-30T19:50:33.468Z,21.02
2023-01-30T19:53:00.478Z,28.58
2023-01-30T19:55:34.822Z,29.75
2023-01-30T19:58:18.950Z,22.55
2023-01-30T20:00:48.655Z,36.22
2023-01-30T20:05:50.854Z,26.23
2023-01-30T20:08:31.612Z,23.53
2023-01-30T20:11:01.782Z,41.73
2023-01-30T20:13:28.803Z,26.92
2023-01-30T20:16:06.189Z,28.05
2023-01-30T20:18:35.543Z,38.58
2023-01-30T20:21:05.769Z,32.07
2023-01-30T20:23:33.384Z,28.83
2023-01-30T20:26:04.632Z,40.15
2023-01-30T20:28:31.937Z,31.40
2023-01-30T20:31:01.168Z,25.40
2023-01-30T20:33:31.230Z,24.20
2023-01-30T20:36:01.158Z,18.27
2023-01-30T20:38:30.613Z,26.03
2023-01-30T20:41:01.860Z,30.50
2023-01-30T20:43:31.654Z,23.90
2023-01-30T20:46:10.916Z,32.30
2023-01-30T20:48:39.300Z,26.97
2023-01-30T20:51:08.559Z,29.00
2023-01-30T20:53:37.125Z,22.83
2023-01-30T20:56:04.930Z,27.23
2023-01-30T20:58:32.494Z,55.17
2023-01-30T21:01:08.699Z,40.10
2023-01-30T21:03:38.209Z,47.53
2023-01-30T21:06:05.996Z,28.63
2023-01-30T21:08:33.595Z,28.00
2023-01-30T21:11:06.155Z,29.47
2023-01-30T21:13:34.494Z,36.07
2023-01-30T21:16:04.088Z,45.20
2023-01-30T21:18:32.562Z,23.27
2023-01-30T21:21:01.645Z,19.87
2023-01-30T21:23:29.657Z,24.43
2023-01-30T21:25:57.795Z,24.60
2023-01-30T21:28:24.743Z,29.07
2023-01-30T21:30:51.846Z,35.50
2023-01-30T21:33:19.268Z,26.37
2023-01-30T21:35:46.464Z,21.80
2023-01-30T21:38:33.323Z,48.40
2023-01-30T21:41:20.946Z,28.67
2023-01-30T21:43:49.388Z,39.47
2023-01-30T21:46:19.155Z,27.93
2023-01-30T21:48:49.066Z,22.57
2023-01-30T21:51:16.619Z,23.00
2023-01-30T21:53:46.392Z,30.00
2023-01-30T21:56:13.703Z,27.63
2023-01-30T21:58:40.935Z,29.70
2023-01-30T22:01:09.388Z,31.20
2023-01-30T22:03:36.662Z,38.73
2023-01-30T22:06:06.614Z,27.40
2023-01-30T22:08:36.389Z,37.47
2023-01-30T22:11:07.433Z,35.87
2023-01-30T22:13:35.597Z,28.23
2023-01-30T22:16:03.313Z,28.37
2023-01-30T22:18:31.797Z,28.60
2023-01-30T22:21:04.607Z,35.03
2023-01-30T22:23:34.488Z,28.30
2023-01-30T22:26:02.476Z,26.23
2023-01-30T22:28:32.467Z,28.60
2023-01-30T22:31:04.223Z,26.17
2023-01-30T22:33:34.544Z,22.80
2023-01-30T22:36:03.403Z,29.23
2023-01-30T22:38:31.364Z,25.67
2023-01-30T22:41:04.216Z,29.43
2023-01-30T22:43:36.076Z,21.43
2023-01-30T22:46:06.617Z,25.17
2023-01-30T22:48:35.214Z,25.00
2023-01-30T22:51:05.428Z,17.40
2023-01-30T22:53:37.070Z,23.23
2023-01-30T22:56:05.978Z,40.43
2023-01-30T22:58:35.708Z,23.53
2023-01-30T23:01:08.295Z,33.27
2023-01-30T23:03:36.179Z,29.77
2023-01-30T23:06:06.514Z,36.70
2023-01-30T23:08:35.764Z,34.70
2023-01-30T23:11:07.426Z,24.03
2023-01-30T23:13:36.004Z,49.83
2023-01-30T23:16:05.269Z,29.23
2023-01-30T23:18:51.026Z,31.13
2023-01-30T23:21:18.519Z,20.33
2023-01-30T23:23:46.527Z,21.27
2023-01-30T23:26:13.927Z,19.00
2023-01-30T23:28:42.421Z,35.17
2023-01-30T23:31:12.351Z,37.00
2023-01-30T23:33:40.433Z,23.83
2023-01-30T23:36:09.503Z,20.43
2023-01-30T23:38:37.698Z,26.30
2023-01-30T23:41:08.071Z,52.60
2023-01-30T23:43:35.377Z,22.13
2023-01-30T23:46:19.951Z,28.33
2023-01-30T23:48:48.999Z,24.50
2023-01-30T23:51:22.347Z,31.20
2023-01-30T23:53:49.894Z,22.83
2023-01-30T23:56:18.326Z,25.20
2023-01-30T23:58:46.038Z,22.63
